Time;durP1;ratioP1;P1;durP2;ratioP2;P2;SDS_P1;SDS_P2;PMS_P1;PMS_P2;Temp;Humidity;BMP_temperature;BMP_pressure;BME280_temperature;BME280_humidity;BME280_pressure;Samples;Min_cycle;Max_cycle;Signal;HPM_P1;HPM_P2
2022/10/30 00:01:24;;;;;;;11.67;3.73;;;14.30;99.90;;;;;;4954431;28;20393;-78
2022/10/30 00:03:50;;;;;;;7.90;3.10;;;14.30;99.90;;;;;;4954432;29;20459;-77
2022/10/30 00:06:15;;;;;;;6.07;2.88;;;14.30;99.90;;;;;;4954065;28;20449;-76
2022/10/30 00:08:41;;;;;;;6.20;2.55;;;14.30;99.90;;;;;;4954614;28;20481;-78
2022/10/30 00:11:11;;;;;;;10.37;3.80;;;14.40;99.90;;;;;;4954414;28;20760;-77
2022/10/30 00:13:37;;;;;;;7.18;3.30;;;14.30;99.90;;;;;;4954012;28;20468;-78
2022/10/30 00:16:05;;;;;;;8.00;3.38;;;14.30;99.90;;;;;;4953985;28;20413;-79
2022/10/30 00:18:31;;;;;;;5.80;2.80;;;14.30;99.90;;;;;;4953437;28;20414;-76
2022/10/30 00:20:57;;;;;;;7.22;3.33;;;14.30;99.90;;;;;;4955345;28;20462;-74
2022/10/30 00:23:22;;;;;;;7.72;2.70;;;14.30;99.90;;;;;;4954408;28;20421;-75
2022/10/30 00:25:48;;;;;;;7.00;2.80;;;14.20;99.90;;;;;;4954025;28;20398;-75
2022/10/30 00:28:13;;;;;;;6.43;2.87;;;14.10;99.90;;;;;;4953952;28;20480;-76
2022/10/30 00:30:39;;;;;;;8.57;2.80;;;14.20;99.90;;;;;;4959199;28;20448;-75
2022/10/30 00:33:04;;;;;;;9.73;3.10;;;14.20;99.90;;;;;;4952354;28;20438;-75
2022/10/30 00:35:30;;;;;;;8.40;3.07;;;14.10;99.90;;;;;;4958435;28;20413;-75
2022/10/30 00:37:56;;;;;;;5.63;2.70;;;14.20;99.90;;;;;;4954706;28;20480;-79
2022/10/30 00:40:22;;;;;;;7.72;3.60;;;14.20;99.90;;;;;;4954102;28;20392;-75
2022/10/30 00:42:47;;;;;;;6.68;2.90;;;14.40;99.90;;;;;;4958023;28;20492;-74
2022/10/30 00:45:14;;;;;;;4.85;3.20;;;14.40;99.90;;;;;;4951991;28;20959;-75
2022/10/30 00:47:45;;;;;;;10.63;3.42;;;14.50;99.90;;;;;;4953543;28;20386;-77
2022/10/30 00:50:32;;;;;;;8.20;3.40;;;14.60;99.90;;;;;;4957023;28;20417;-75
2022/10/30 00:53:04;;;;;;;9.38;3.10;;;14.40;99.90;;;;;;4944534;28;20481;-76
2022/10/30 00:55:33;;;;;;;9.68;2.88;;;14.30;99.90;;;;;;4951602;28;20418;-75
2022/10/30 00:58:02;;;;;;;9.60;2.70;;;14.40;99.90;;;;;;4954919;28;20482;-75
2022/10/30 01:00:28;;;;;;;7.53;3.25;;;14.30;99.90;;;;;;4955579;28;20425;-75
2022/10/30 01:02:55;;;;;;;7.82;2.70;;;14.30;99.90;;;;;;4955304;28;20410;-75
2022/10/30 01:05:23;;;;;;;6.88;2.90;;;14.20;99.90;;;;;;4953947;28;20418;-75
2022/10/30 01:07:49;;;;;;;7.35;3.20;;;14.20;99.90;;;;;;4951964;28;20425;-75
2022/10/30 01:10:14;;;;;;;9.15;3.00;;;14.20;99.90;;;;;;4951870;28;20417;-75
2022/10/30 01:12:42;;;;;;;6.43;2.58;;;14.10;99.90;;;;;;4952858;28;20390;-75
2022/10/30 01:15:08;;;;;;;6.93;2.88;;;14.10;99.90;;;;;;4953102;28;20417;-75
2022/10/30 01:18:15;;;;;;;5.43;2.75;;;14.20;99.90;;;;;;4951888;28;20472;-75
2022/10/30 01:21:01;;;;;;;5.78;2.70;;;14.20;99.90;;;;;;4952592;28;20429;-77
2022/10/30 01:23:52;;;;;;;5.72;2.90;;;14.20;99.90;;;;;;4952634;28;20412;-75
2022/10/30 01:26:44;;;;;;;7.20;2.83;;;14.10;99.90;;;;;;4952270;28;20409;-75
2022/10/30 01:30:00;;;;;;;6.03;2.42;;;14.10;99.90;;;;;;4952348;28;20433;-75
2022/10/30 01:33:07;;;;;;;6.97;3.20;;;14.20;99.90;;;;;;4951320;28;20439;-75
2022/10/30 01:35:55;;;;;;;4.83;2.70;;;14.10;99.90;;;;;;4952295;28;20804;-74
2022/10/30 01:38:29;;;;;;;4.68;2.47;;;14.20;99.90;;;;;;4951989;28;20405;-75
2022/10/30 01:40:55;;;;;;;3.83;2.30;;;14.20;99.90;;;;;;4954491;28;20833;-75
2022/10/30 01:43:20;;;;;;;5.93;2.80;;;14.20;99.90;;;;;;4950133;28;20410;-75
2022/10/30 01:46:04;;;;;;;5.10;2.47;;;14.20;99.90;;;;;;4951897;28;20413;-77
2022/10/30 01:48:46;;;;;;;6.78;2.50;;;14.20;99.90;;;;;;4944186;28;20535;-75
2022/10/30 01:51:30;;;;;;;6.35;2.45;;;14.20;99.90;;;;;;4951255;28;20414;-75
2022/10/30 01:54:05;;;;;;;4.70;2.30;;;14.20;99.90;;;;;;4951321;28;20386;-75
2022/10/30 01:56:42;;;;;;;3.17;2.25;;;14.20;99.90;;;;;;4945170;28;20422;-74
2022/10/30 01:59:16;;;;;;;6.40;2.90;;;14.20;99.90;;;;;;4952451;28;20717;-75
2022/10/30 02:01:42;;;;;;;5.03;2.50;;;14.20;99.90;;;;;;4950478;28;20421;-75
2022/10/30 02:04:10;;;;;;;7.18;2.40;;;14.10;99.90;;;;;;4949737;28;20444;-76
2022/10/30 02:06:37;;;;;;;4.60;2.10;;;14.10;99.90;;;;;;4952129;28;20410;-76
2022/10/30 02:09:03;;;;;;;5.80;2.60;;;14.00;99.90;;;;;;4955197;28;20419;-75
2022/10/30 02:11:31;;;;;;;7.82;2.65;;;14.10;99.90;;;;;;4952097;28;20394;-75
2022/10/30 02:13:59;;;;;;;6.40;2.30;;;14.10;99.90;;;;;;4951897;28;20437;-75
2022/10/30 02:16:25;;;;;;;6.68;2.40;;;14.10;99.90;;;;;;4951984;28;20500;-75
2022/10/30 02:18:50;;;;;;;6.30;2.23;;;14.10;99.90;;;;;;4950812;28;20493;-75
2022/10/30 02:21:16;;;;;;;5.07;2.13;;;14.10;99.90;;;;;;4954168;28;20471;-76
2022/10/30 02:23:41;;;;;;;4.80;2.00;;;14.00;99.90;;;;;;4952182;28;20401;-76
2022/10/30 02:26:07;;;;;;;4.60;2.47;;;14.10;99.90;;;;;;4951006;28;20785;-76
2022/10/30 02:28:32;;;;;;;8.23;2.50;;;14.10;99.90;;;;;;4950782;28;20452;-75
2022/10/30 02:30:58;;;;;;;8.30;2.22;;;14.00;99.90;;;;;;4951335;28;20441;-76
2022/10/30 02:33:24;;;;;;;6.38;2.20;;;14.00;99.90;;;;;;4949907;28;20431;-76
2022/10/30 02:35:50;;;;;;;5.32;2.20;;;14.10;99.90;;;;;;4953253;28;20476;-76
2022/10/30 02:38:15;;;;;;;3.90;2.30;;;14.00;99.90;;;;;;4951618;28;20413;-76
2022/10/30 02:40:41;;;;;;;5.50;2.00;;;14.10;99.90;;;;;;4955313;28;20405;-78
2022/10/30 02:43:07;;;;;;;5.50;2.03;;;14.10;99.90;;;;;;4950121;28;20423;-75
2022/10/30 02:45:32;;;;;;;5.20;2.20;;;14.10;99.90;;;;;;4950899;28;20916;-76
2022/10/30 02:47:59;;;;;;;7.07;2.38;;;14.00;99.90;;;;;;4951667;28;20406;-76
2022/10/30 02:50:25;;;;;;;4.13;1.60;;;14.00;99.90;;;;;;4951662;28;20413;-75
2022/10/30 02:52:51;;;;;;;5.97;2.20;;;13.90;99.90;;;;;;4954197;28;20571;-76
2022/10/30 02:55:17;;;;;;;4.77;2.17;;;14.00;99.90;;;;;;4950524;28;20417;-75
2022/10/30 02:57:42;;;;;;;5.22;2.20;;;13.90;99.90;;;;;;4950979;28;20410;-75
2022/10/30 03:00:09;;;;;;;5.97;2.30;;;13.90;99.90;;;;;;4950122;28;20410;-76
2022/10/30 03:02:34;;;;;;;4.15;2.50;;;13.90;99.90;;;;;;4949932;28;20414;-76
2022/10/30 03:05:00;;;;;;;4.50;2.20;;;13.90;99.90;;;;;;4954563;28;20445;-76
2022/10/30 03:07:25;;;;;;;7.47;2.17;;;13.90;99.90;;;;;;4950266;28;20414;-76
2022/10/30 03:09:53;;;;;;;2.53;2.00;;;14.00;99.90;;;;;;4953660;28;21450;-76
2022/10/30 03:12:18;;;;;;;7.07;2.50;;;14.00;99.90;;;;;;4963888;28;20480;-76
2022/10/30 03:14:44;;;;;;;4.57;1.90;;;14.00;99.90;;;;;;4953477;28;20561;-76
2022/10/30 03:17:10;;;;;;;4.60;2.03;;;13.90;99.90;;;;;;4954306;28;20413;-75
2022/10/30 03:19:35;;;;;;;4.73;2.30;;;13.90;99.90;;;;;;4954599;28;20421;-75
2022/10/30 03:22:01;;;;;;;10.60;2.30;;;13.90;99.90;;;;;;4953847;28;20847;-76
2022/10/30 03:24:26;;;;;;;4.40;1.85;;;13.90;99.90;;;;;;4954171;28;20413;-76
2022/10/30 03:26:52;;;;;;;5.85;1.80;;;13.90;99.90;;;;;;4954205;28;20772;-76
2022/10/30 03:29:17;;;;;;;5.80;1.80;;;13.80;99.90;;;;;;4954206;28;20409;-75
2022/10/30 03:31:43;;;;;;;3.58;1.80;;;13.80;99.90;;;;;;4953964;28;20417;-76
2022/10/30 03:34:09;;;;;;;5.38;2.33;;;13.80;99.90;;;;;;4953099;28;20789;-76
2022/10/30 03:36:34;;;;;;;5.75;2.10;;;13.70;99.90;;;;;;4953614;28;20484;-76
2022/10/30 03:39:00;;;;;;;5.13;2.00;;;13.70;99.90;;;;;;4957708;28;20486;-76
2022/10/30 03:41:25;;;;;;;6.80;2.22;;;13.70;99.90;;;;;;4954960;28;20422;-76
2022/10/30 03:43:51;;;;;;;7.20;2.10;;;13.80;99.90;;;;;;4954517;28;20393;-77
2022/10/30 03:46:16;;;;;;;5.70;2.10;;;13.70;99.90;;;;;;4953840;28;20896;-76
2022/10/30 03:48:42;;;;;;;6.80;2.60;;;13.80;99.90;;;;;;4953546;28;20434;-76
2022/10/30 03:51:07;;;;;;;3.77;2.20;;;13.70;99.90;;;;;;4945719;28;20441;-76
2022/10/30 03:53:33;;;;;;;4.13;2.40;;;13.70;99.90;;;;;;4953843;28;20409;-76
2022/10/30 03:56:01;;;;;;;3.58;2.20;;;13.70;99.90;;;;;;4952293;28;21087;-75
2022/10/30 03:58:28;;;;;;;2.85;2.00;;;13.80;99.90;;;;;;4951932;28;20414;-75
2022/10/30 04:00:53;;;;;;;4.75;1.80;;;13.80;99.90;;;;;;4953709;28;20821;-77
2022/10/30 04:03:19;;;;;;;4.40;2.00;;;13.70;99.90;;;;;;4954229;29;20394;-76
2022/10/30 04:05:45;;;;;;;5.50;2.40;;;13.70;99.90;;;;;;4952392;28;20935;-75
2022/10/30 04:08:12;;;;;;;4.13;2.20;;;13.70;99.90;;;;;;4953453;28;20419;-76
2022/10/30 04:10:42;;;;;;;3.70;1.80;;;13.70;99.90;;;;;;4953350;28;20412;-76
2022/10/30 04:13:09;;;;;;;5.25;2.00;;;13.70;99.90;;;;;;4954029;28;20482;-76
2022/10/30 04:15:35;;;;;;;5.25;2.20;;;13.70;99.90;;;;;;4954296;28;20983;-75
2022/10/30 04:18:02;;;;;;;4.38;1.90;;;13.70;99.90;;;;;;4953759;28;20461;-76
2022/10/30 04:20:28;;;;;;;5.40;1.88;;;13.70;99.90;;;;;;4952473;28;20440;-76
2022/10/30 04:23:03;;;;;;;4.22;1.90;;;13.70;99.90;;;;;;4948235;28;20509;-75
2022/10/30 04:25:29;;;;;;;4.72;1.80;;;13.70;99.90;;;;;;4952815;28;20421;-76
2022/10/30 04:27:55;;;;;;;5.97;1.80;;;13.70;99.90;;;;;;4952194;28;20503;-76
2022/10/30 04:30:23;;;;;;;4.30;1.60;;;13.70;99.90;;;;;;4956666;28;20456;-76
2022/10/30 04:32:51;;;;;;;2.95;1.80;;;13.70;99.90;;;;;;4957818;28;20883;-76
2022/10/30 04:35:19;;;;;;;4.60;1.88;;;13.80;99.90;;;;;;4953658;28;20476;-76
2022/10/30 04:37:55;;;;;;;4.55;1.80;;;13.80;99.90;;;;;;4955394;28;20401;-77
2022/10/30 04:40:22;;;;;;;4.22;1.80;;;13.90;99.90;;;;;;4956130;28;20425;-79
2022/10/30 04:42:48;;;;;;;3.85;1.60;;;13.80;99.90;;;;;;4953304;28;20414;-75
2022/10/30 04:45:14;;;;;;;6.60;2.20;;;13.80;99.90;;;;;;4954482;28;20941;-76
2022/10/30 04:47:39;;;;;;;5.15;2.55;;;13.80;99.90;;;;;;4953856;28;20454;-75
2022/10/30 04:50:05;;;;;;;4.33;1.90;;;13.70;99.90;;;;;;4952589;28;20545;-76
2022/10/30 04:52:31;;;;;;;4.68;2.05;;;13.80;99.90;;;;;;4949940;28;20515;-76
2022/10/30 04:54:56;;;;;;;6.20;2.00;;;13.70;99.90;;;;;;4953087;28;20803;-75
2022/10/30 04:57:22;;;;;;;2.67;1.57;;;13.60;99.90;;;;;;4953429;28;20420;-75
2022/10/30 04:59:47;;;;;;;3.90;1.80;;;13.60;99.90;;;;;;4953153;28;20406;-75
2022/10/30 05:02:13;;;;;;;4.30;1.90;;;13.50;99.90;;;;;;4953535;28;20416;-76
2022/10/30 05:04:38;;;;;;;4.70;2.00;;;13.50;99.90;;;;;;4952166;28;20497;-74
2022/10/30 05:07:04;;;;;;;5.17;2.13;;;13.50;99.90;;;;;;4950286;28;20418;-75
2022/10/30 05:09:30;;;;;;;2.90;2.10;;;13.50;99.90;;;;;;4952665;28;20409;-74
2022/10/30 05:11:55;;;;;;;2.30;1.70;;;13.50;99.90;;;;;;4953228;28;20934;-75
2022/10/30 05:14:21;;;;;;;4.35;1.92;;;13.50;99.90;;;;;;4951640;28;20504;-75
2022/10/30 05:16:46;;;;;;;4.00;2.17;;;13.50;99.90;;;;;;4954806;28;20484;-75
2022/10/30 05:19:12;;;;;;;6.37;1.90;;;13.50;99.90;;;;;;4953281;28;20390;-75
2022/10/30 05:21:38;;;;;;;3.78;2.05;;;13.40;99.90;;;;;;4952096;28;20421;-75
2022/10/30 05:24:03;;;;;;;3.17;1.90;;;13.30;99.90;;;;;;4951306;28;20493;-75
2022/10/30 05:26:29;;;;;;;4.13;2.03;;;13.30;99.90;;;;;;4951606;28;20899;-75
2022/10/30 05:28:55;;;;;;;7.20;2.07;;;13.30;99.90;;;;;;4951610;28;20410;-75
2022/10/30 05:31:20;;;;;;;5.00;2.10;;;13.40;99.90;;;;;;4955039;28;20417;-76
2022/10/30 05:33:46;;;;;;;3.00;1.90;;;13.30;99.90;;;;;;4952308;28;20398;-75
2022/10/30 05:36:11;;;;;;;2.67;1.85;;;13.30;99.90;;;;;;4974852;23;20445;-78
2022/10/30 05:38:37;;;;;;;4.30;1.90;;;13.30;99.90;;;;;;4952592;28;20757;-76
2022/10/30 05:41:02;;;;;;;5.67;2.10;;;13.20;99.90;;;;;;4951575;28;20519;-77
2022/10/30 05:43:28;;;;;;;3.88;2.20;;;13.40;99.90;;;;;;4952458;28;20413;-76
2022/10/30 05:45:53;;;;;;;3.90;2.13;;;13.40;99.90;;;;;;4952671;28;20409;-76
2022/10/30 05:48:19;;;;;;;6.00;2.50;;;13.40;99.90;;;;;;4950388;28;20803;-76
2022/10/30 05:50:45;;;;;;;5.80;2.53;;;13.30;99.90;;;;;;4951609;28;20466;-76
2022/10/30 05:53:10;;;;;;;5.35;2.47;;;13.40;99.90;;;;;;4950167;28;20429;-76
2022/10/30 05:55:36;;;;;;;3.53;1.90;;;13.30;99.90;;;;;;4953477;28;20437;-76
2022/10/30 05:58:04;;;;;;;2.90;2.60;;;13.40;99.90;;;;;;4952453;28;20417;-76
2022/10/30 06:00:33;;;;;;;3.58;1.80;;;13.40;99.90;;;;;;4950330;28;20421;-75
2022/10/30 06:03:11;;;;;;;3.30;1.85;;;13.30;99.90;;;;;;4950577;29;20440;-77
2022/10/30 06:05:37;;;;;;;5.65;2.30;;;13.40;99.90;;;;;;4946622;29;20922;-77
2022/10/30 06:08:04;;;;;;;5.20;2.00;;;13.50;99.90;;;;;;4952207;28;20477;-77
2022/10/30 06:10:30;;;;;;;2.70;1.60;;;13.40;99.90;;;;;;4951462;28;20876;-77
2022/10/30 06:12:58;;;;;;;4.60;1.80;;;13.40;99.90;;;;;;4951992;28;20501;-77
2022/10/30 06:15:24;;;;;;;6.07;2.43;;;13.30;99.90;;;;;;4951325;28;20916;-76
2022/10/30 06:17:50;;;;;;;3.50;2.58;;;13.30;99.90;;;;;;4951486;28;20413;-76
2022/10/30 06:20:17;;;;;;;4.93;2.30;;;13.20;99.90;;;;;;4952472;28;20445;-77
2022/10/30 06:23:02;;;;;;;3.75;1.92;;;13.20;99.90;;;;;;4950803;29;20402;-75
2022/10/30 06:25:35;;;;;;;9.73;2.50;;;13.20;99.90;;;;;;4950130;29;20445;-77
2022/10/30 06:28:01;;;;;;;3.40;1.80;;;13.30;99.90;;;;;;4952988;28;20971;-76
2022/10/30 06:30:27;;;;;;;3.60;1.90;;;13.40;99.90;;;;;;4950571;28;20398;-75
2022/10/30 06:33:01;;;;;;;3.13;1.73;;;13.30;99.90;;;;;;4949276;29;20914;-75
2022/10/30 06:35:29;;;;;;;3.30;2.20;;;13.40;99.90;;;;;;4951889;28;20504;-76
2022/10/30 06:37:57;;;;;;;5.87;2.27;;;13.40;99.90;;;;;;4952038;28;20418;-76
2022/10/30 06:40:23;;;;;;;3.40;1.80;;;13.50;99.90;;;;;;4950255;28;20470;-76
2022/10/30 06:42:50;;;;;;;4.17;2.10;;;13.40;99.90;;;;;;4950987;28;20406;-75
2022/10/30 06:45:19;;;;;;;6.07;1.80;;;13.40;99.90;;;;;;4951996;28;20397;-75
2022/10/30 06:47:44;;;;;;;3.00;1.70;;;13.50;99.90;;;;;;4949466;28;20423;-76
2022/10/30 06:50:13;;;;;;;2.55;1.90;;;13.70;99.90;;;;;;4955299;28;20397;-78
2022/10/30 06:52:38;;;;;;;4.50;2.20;;;13.70;99.90;;;;;;4956931;28;20396;-77
2022/10/30 06:55:04;;;;;;;2.92;1.67;;;13.70;99.90;;;;;;4956155;28;20756;-78
2022/10/30 06:57:30;;;;;;;4.70;1.80;;;13.70;99.90;;;;;;4957715;28;20927;-78
2022/10/30 06:59:59;;;;;;;4.67;1.80;;;13.80;99.90;;;;;;4958623;28;20424;-78
2022/10/30 07:02:25;;;;;;;3.55;1.80;;;13.80;99.90;;;;;;4958725;28;20461;-77
2022/10/30 07:04:50;;;;;;;5.13;1.90;;;13.90;99.90;;;;;;4964744;28;20469;-77
2022/10/30 07:07:16;;;;;;;4.10;2.30;;;13.80;99.90;;;;;;4957760;28;20436;-77
2022/10/30 07:09:42;;;;;;;3.20;1.80;;;13.80;99.90;;;;;;4951665;28;20413;-78
2022/10/30 07:12:08;;;;;;;7.28;2.30;;;13.70;99.90;;;;;;4949090;29;20433;-77
2022/10/30 07:14:34;;;;;;;4.97;2.50;;;13.90;99.90;;;;;;4952435;28;20429;-77
2022/10/30 07:17:00;;;;;;;5.20;2.20;;;13.80;99.90;;;;;;4971478;28;20422;-77
2022/10/30 07:19:26;;;;;;;4.60;1.92;;;13.80;99.90;;;;;;4960263;28;20417;-77
2022/10/30 07:21:52;;;;;;;3.28;2.08;;;13.90;99.90;;;;;;4957758;28;20424;-76
2022/10/30 07:24:17;;;;;;;4.13;1.87;;;13.80;99.90;;;;;;4945767;28;20413;-76
2022/10/30 07:26:43;;;;;;;5.25;2.40;;;13.80;99.90;;;;;;4950050;28;20832;-76
2022/10/30 07:29:08;;;;;;;5.90;2.00;;;13.80;99.90;;;;;;4947978;28;21045;-76
2022/10/30 07:31:34;;;;;;;6.33;2.87;;;13.80;99.90;;;;;;4950446;28;20481;-77
2022/10/30 07:33:59;;;;;;;3.00;1.70;;;13.80;99.90;;;;;;4949168;29;20569;-76
2022/10/30 07:36:25;;;;;;;2.88;1.90;;;13.90;99.90;;;;;;4950187;28;20432;-77
2022/10/30 07:38:51;;;;;;;5.30;2.00;;;13.90;99.90;;;;;;4950436;28;20420;-77
2022/10/30 07:41:18;;;;;;;3.10;1.92;;;14.00;99.90;;;;;;4966982;28;20397;-77
2022/10/30 07:43:44;;;;;;;3.75;1.80;;;14.00;99.90;;;;;;4951824;28;20515;-77
2022/10/30 07:46:10;;;;;;;4.38;2.10;;;14.10;99.90;;;;;;4951572;28;20841;-75
2022/10/30 07:48:36;;;;;;;8.70;2.70;;;14.20;99.90;;;;;;4951665;28;20433;-76
2022/10/30 07:51:02;;;;;;;3.30;2.00;;;14.20;99.90;;;;;;4950087;28;20840;-76
2022/10/30 07:53:28;;;;;;;4.70;2.30;;;14.30;99.90;;;;;;4949262;28;21035;-77
2022/10/30 07:55:54;;;;;;;3.88;2.00;;;14.40;99.90;;;;;;4949842;28;20529;-76
2022/10/30 07:58:22;;;;;;;4.38;2.30;;;14.50;99.90;;;;;;4954151;28;20749;-76
2022/10/30 08:00:48;;;;;;;2.60;1.83;;;14.60;99.90;;;;;;4953996;28;20457;-77
2022/10/30 08:03:14;;;;;;;5.18;1.80;;;14.70;99.90;;;;;;4958618;28;20809;-76
2022/10/30 08:05:40;;;;;;;3.63;2.20;;;14.80;99.90;;;;;;4947137;29;20746;-76
2022/10/30 08:08:06;;;;;;;3.55;2.10;;;15.00;99.90;;;;;;4954773;28;20833;-77
2022/10/30 08:10:32;;;;;;;3.63;2.38;;;15.00;99.90;;;;;;4957471;28;20405;-77
2022/10/30 08:12:58;;;;;;;4.20;2.40;;;15.10;99.90;;;;;;4954587;28;20461;-77
2022/10/30 08:15:24;;;;;;;6.60;2.70;;;15.20;99.90;;;;;;4954917;28;20422;-77
2022/10/30 08:17:49;;;;;;;3.97;2.03;;;15.30;99.90;;;;;;4966112;28;20388;-76
2022/10/30 08:20:18;;;;;;;5.73;2.10;;;15.50;99.90;;;;;;4964181;28;20440;-76
2022/10/30 08:22:49;;;;;;;3.37;2.37;;;15.60;99.90;;;;;;4972106;28;20987;-76
2022/10/30 08:25:17;;;;;;;4.00;2.07;;;15.70;99.90;;;;;;4972494;28;20396;-76
2022/10/30 08:27:57;;;;;;;4.60;2.75;;;15.80;99.90;;;;;;4973333;28;20399;-77
2022/10/30 08:30:25;;;;;;;5.95;2.50;;;15.90;99.90;;;;;;4974932;28;20484;-77
2022/10/30 08:32:51;;;;;;;5.68;2.30;;;16.10;99.90;;;;;;4963812;28;20404;-77
2022/10/30 08:35:17;;;;;;;5.80;2.80;;;16.30;99.90;;;;;;4958887;28;20410;-77
2022/10/30 08:37:42;;;;;;;4.40;2.60;;;16.40;99.90;;;;;;4958123;28;20393;-77
2022/10/30 08:40:10;;;;;;;9.87;2.87;;;16.50;99.90;;;;;;4956233;28;20466;-77
2022/10/30 08:42:35;;;;;;;5.63;2.70;;;16.50;99.90;;;;;;4956847;28;20479;-77
2022/10/30 08:45:01;;;;;;;5.90;3.10;;;16.60;99.90;;;;;;4971668;28;20420;-77
2022/10/30 08:47:27;;;;;;;6.33;2.90;;;16.60;99.90;;;;;;4964238;28;20435;-77
2022/10/30 08:49:52;;;;;;;4.20;2.90;;;16.60;99.90;;;;;;4959721;28;20418;-77
2022/10/30 08:52:18;;;;;;;5.82;3.78;;;16.70;99.90;;;;;;4956701;28;20402;-77
2022/10/30 08:54:43;;;;;;;5.47;3.70;;;16.70;99.90;;;;;;4956262;28;20414;-77
2022/10/30 08:57:09;;;;;;;5.13;3.70;;;16.80;99.90;;;;;;4954283;28;21019;-77
2022/10/30 08:59:34;;;;;;;8.05;4.75;;;17.00;99.90;;;;;;4954867;28;20880;-74
2022/10/30 09:02:00;;;;;;;8.17;4.70;;;17.00;99.90;;;;;;4953959;28;20947;-75
2022/10/30 09:04:26;;;;;;;8.43;4.97;;;17.10;99.90;;;;;;4952899;28;20394;-75
2022/10/30 09:06:51;;;;;;;8.87;5.40;;;17.10;99.90;;;;;;4952415;28;20401;-75
2022/10/30 09:09:17;;;;;;;10.60;5.50;;;17.20;99.90;;;;;;4952174;28;20426;-76
2022/10/30 09:11:42;;;;;;;7.25;5.85;;;17.20;99.90;;;;;;4953352;28;20386;-76
2022/10/30 09:14:08;;;;;;;8.23;5.90;;;17.20;99.90;;;;;;4951871;28;20900;-75
2022/10/30 09:16:33;;;;;;;9.50;6.80;;;17.20;99.90;;;;;;4950912;28;20501;-76
2022/10/30 09:18:59;;;;;;;9.55;6.57;;;17.10;99.90;;;;;;4967716;28;20398;-75
2022/10/30 09:21:24;;;;;;;8.53;6.37;;;17.10;99.90;;;;;;4951448;29;20429;-76
2022/10/30 09:23:50;;;;;;;9.40;7.00;;;17.10;99.90;;;;;;4950374;29;20959;-76
2022/10/30 09:26:15;;;;;;;9.88;7.30;;;17.20;99.90;;;;;;4952561;28;20487;-76
2022/10/30 09:28:41;;;;;;;8.20;6.70;;;17.30;99.90;;;;;;4950861;28;20417;-75
2022/10/30 09:31:06;;;;;;;12.73;7.33;;;17.30;99.90;;;;;;4950716;28;20417;-75
2022/10/30 09:33:32;;;;;;;7.87;6.20;;;17.40;99.90;;;;;;4948353;28;20796;-77
2022/10/30 09:35:58;;;;;;;9.10;6.73;;;17.50;99.90;;;;;;4946850;29;20440;-78
2022/10/30 09:38:23;;;;;;;9.40;7.40;;;17.50;99.90;;;;;;4951177;28;20445;-76
2022/10/30 09:40:55;;;;;;;8.83;6.80;;;17.50;99.90;;;;;;4952556;28;20896;-76
2022/10/30 09:43:39;;;;;;;9.68;7.13;;;17.50;99.90;;;;;;4949114;28;20425;-78
2022/10/30 09:46:04;;;;;;;13.13;7.00;;;17.50;99.90;;;;;;4954182;28;20428;-77
2022/10/30 09:48:57;;;;;;;10.93;6.50;;;17.60;99.90;;;;;;4952971;28;20421;-77
2022/10/30 09:51:34;;;;;;;8.65;6.38;;;17.70;99.90;;;;;;4966073;29;20405;-78
2022/10/30 09:54:20;;;;;;;7.38;6.13;;;17.90;99.90;;;;;;4964506;28;20417;-78
2022/10/30 09:56:59;;;;;;;9.87;6.40;;;18.00;99.90;;;;;;4965557;28;20417;-77
2022/10/30 09:59:50;;;;;;;10.40;6.75;;;18.10;99.90;;;;;;4961102;28;20824;-77
2022/10/30 10:02:32;;;;;;;9.10;5.70;;;18.20;99.90;;;;;;4962015;28;20406;-78
2022/10/30 10:05:04;;;;;;;10.20;6.28;;;18.30;99.90;;;;;;4961586;28;20831;-78
2022/10/30 10:07:34;;;;;;;9.35;6.10;;;18.40;99.90;;;;;;4962195;28;20440;-77
2022/10/30 10:10:04;;;;;;;11.20;6.53;;;18.50;99.90;;;;;;4958706;28;20378;-78
2022/10/30 10:12:45;;;;;;;6.80;5.18;;;18.70;99.90;;;;;;4951358;29;20426;-77
2022/10/30 10:15:14;;;;;;;7.68;4.90;;;18.80;99.90;;;;;;4953254;28;20390;-78
2022/10/30 10:17:43;;;;;;;8.52;5.57;;;18.80;99.90;;;;;;4954619;28;20396;-78
2022/10/30 10:20:40;;;;;;;7.70;5.90;;;18.90;99.90;;;;;;4953478;28;20402;-76
2022/10/30 10:23:25;;;;;;;9.38;5.10;;;19.00;99.90;;;;;;4951151;28;21121;-75
2022/10/30 10:25:56;;;;;;;6.20;5.40;;;19.10;99.90;;;;;;4952001;29;20394;-76
2022/10/30 10:28:55;;;;;;;7.22;4.70;;;19.20;99.90;;;;;;4950664;29;20920;-75
2022/10/30 10:31:46;;;;;;;6.38;4.70;;;19.40;99.90;;;;;;4952408;29;20389;-76
2022/10/30 10:34:37;;;;;;;9.80;5.20;;;19.50;99.90;;;;;;4958402;28;20397;-75
2022/10/30 10:37:25;;;;;;;7.90;5.05;;;19.70;99.90;;;;;;4952176;29;20445;-77
2022/10/30 10:40:15;;;;;;;8.05;4.80;;;19.70;99.90;;;;;;4951106;29;20401;-79
2022/10/30 10:43:22;;;;;;;8.15;5.20;;;19.80;99.90;;;;;;4951705;29;20906;-78
2022/10/30 10:46:06;;;;;;;6.13;4.50;;;19.90;99.90;;;;;;4948883;28;20437;-78
2022/10/30 10:48:50;;;;;;;6.50;4.70;;;20.10;99.90;;;;;;4947750;29;20410;-79
2022/10/30 10:51:15;;;;;;;8.75;4.70;;;20.30;99.90;;;;;;4950915;28;20436;-77
2022/10/30 10:53:50;;;;;;;6.77;5.00;;;20.40;99.90;;;;;;4947926;28;20488;-77
2022/10/30 10:56:17;;;;;;;7.15;4.40;;;20.40;99.90;;;;;;4949695;29;20417;-77
2022/10/30 10:58:53;;;;;;;10.07;5.38;;;20.30;99.90;;;;;;4944087;28;20413;-77
2022/10/30 11:01:30;;;;;;;9.18;4.65;;;20.50;99.90;;;;;;4949564;29;20425;-76
2022/10/30 11:04:00;;;;;;;7.70;4.70;;;20.90;99.90;;;;;;4943631;28;20441;-76
2022/10/30 11:06:37;;;;;;;7.22;4.97;;;21.20;99.90;;;;;;4949912;29;20421;-76
2022/10/30 11:09:12;;;;;;;8.45;4.20;;;21.60;99.90;;;;;;4952072;28;20389;-76
2022/10/30 11:11:37;;;;;;;7.57;4.20;;;21.60;99.90;;;;;;4952148;28;20390;-76
2022/10/30 11:14:13;;;;;;;8.40;4.70;;;21.50;99.90;;;;;;4950245;28;20947;-76
2022/10/30 11:16:59;;;;;;;6.45;4.40;;;21.50;99.80;;;;;;4950566;29;20405;-76
2022/10/30 11:19:24;;;;;;;7.97;4.80;;;21.40;99.90;;;;;;4951673;29;20402;-76
2022/10/30 11:21:54;;;;;;;5.78;4.20;;;21.50;99.90;;;;;;4950884;28;20445;-76
2022/10/30 11:24:27;;;;;;;10.27;4.65;;;21.50;99.10;;;;;;4950547;29;20912;-76
2022/10/30 11:26:55;;;;;;;6.50;4.10;;;21.70;98.50;;;;;;4951882;29;20408;-76
2022/10/30 11:29:28;;;;;;;5.63;3.90;;;21.60;97.10;;;;;;4952002;28;20485;-77
2022/10/30 11:32:02;;;;;;;7.78;3.95;;;21.70;95.80;;;;;;4953780;28;20401;-76
2022/10/30 11:34:33;;;;;;;6.28;3.95;;;22.10;95.30;;;;;;4955253;29;20432;-77
2022/10/30 11:36:59;;;;;;;9.70;4.80;;;22.20;95.00;;;;;;4955519;29;20473;-76
2022/10/30 11:39:33;;;;;;;5.43;4.50;;;22.30;95.00;;;;;;4954278;28;20390;-77
2022/10/30 11:42:00;;;;;;;6.28;3.95;;;21.90;95.40;;;;;;4955520;29;20397;-77
2022/10/30 11:44:37;;;;;;;7.10;4.90;;;21.70;95.50;;;;;;4955256;29;20402;-77
2022/10/30 11:47:05;;;;;;;8.65;4.10;;;21.90;96.20;;;;;;4954284;29;20432;-76
2022/10/30 11:49:48;;;;;;;5.95;4.22;;;22.10;96.10;;;;;;4955450;29;20398;-77
2022/10/30 11:52:17;;;;;;;6.55;3.90;;;21.80;96.30;;;;;;4954222;29;20430;-77
2022/10/30 11:54:47;;;;;;;5.53;3.90;;;22.10;95.80;;;;;;4955971;29;20397;-77
2022/10/30 11:57:22;;;;;;;5.90;4.20;;;22.40;95.70;;;;;;4955703;29;20420;-77
2022/10/30 11:59:52;;;;;;;6.78;4.50;;;22.20;95.80;;;;;;4955766;29;20389;-77
2022/10/30 12:02:28;;;;;;;7.55;3.85;;;22.60;95.60;;;;;;4955099;29;21080;-77
2022/10/30 12:04:59;;;;;;;6.25;3.75;;;22.70;94.90;;;;;;4953732;29;20896;-77
2022/10/30 12:07:31;;;;;;;7.20;4.22;;;23.10;94.10;;;;;;4955015;29;20648;-77
2022/10/30 12:09:58;;;;;;;6.07;3.97;;;23.20;93.50;;;;;;4954963;29;20878;-77
2022/10/30 12:12:36;;;;;;;9.25;4.68;;;23.40;93.90;;;;;;4954913;29;20390;-75
2022/10/30 12:15:14;;;;;;;6.95;4.40;;;23.50;94.10;;;;;;4954349;29;20390;-76
2022/10/30 12:17:41;;;;;;;8.35;4.28;;;23.60;94.10;;;;;;4955136;29;20802;-76
2022/10/30 12:20:12;;;;;;;8.77;4.90;;;23.60;93.80;;;;;;4954853;29;20840;-76
2022/10/30 12:22:38;;;;;;;6.38;4.28;;;23.70;94.50;;;;;;4953081;29;20414;-75
2022/10/30 12:25:19;;;;;;;7.30;5.10;;;23.70;94.10;;;;;;4954613;28;20394;-76
2022/10/30 12:27:45;;;;;;;4.68;3.90;;;23.80;93.80;;;;;;4954813;28;20808;-76
2022/10/30 12:30:19;;;;;;;7.47;4.28;;;23.40;94.80;;;;;;4955373;28;20413;-76
2022/10/30 12:33:06;;;;;;;5.60;4.18;;;23.70;94.00;;;;;;4954378;29;20444;-76
2022/10/30 12:35:41;;;;;;;6.72;4.32;;;24.40;93.00;;;;;;4969084;28;20422;-76
2022/10/30 12:38:21;;;;;;;5.50;3.90;;;24.60;92.40;;;;;;4954334;29;20393;-76
2022/10/30 12:41:09;;;;;;;6.22;4.18;;;25.00;91.40;;;;;;4955096;28;20393;-78
2022/10/30 12:43:35;;;;;;;6.17;3.60;;;24.60;93.20;;;;;;4954082;28;20823;-76
2022/10/30 12:46:09;;;;;;;10.35;4.15;;;24.80;92.20;;;;;;4969018;28;20390;-76
2022/10/30 12:48:43;;;;;;;6.43;3.92;;;24.20;93.20;;;;;;4952987;28;20474;-76
2022/10/30 12:51:27;;;;;;;7.10;4.03;;;24.30;95.20;;;;;;4969471;28;20764;-76
2022/10/30 12:54:08;;;;;;;5.00;3.80;;;24.30;96.50;;;;;;4953990;28;20422;-76
2022/10/30 12:56:38;;;;;;;6.68;3.90;;;24.30;97.50;;;;;;4952850;28;20488;-76
2022/10/30 12:59:25;;;;;;;7.22;4.30;;;24.40;95.40;;;;;;4954086;28;20904;-76